createdAt,value
2022-08-23T00:01:39.275Z,1.05
2022-08-23T00:03:42.432Z,1.20
2022-08-23T00:05:44.478Z,0.93
2022-08-23T00:07:45.968Z,1.00
2022-08-23T00:09:47.579Z,1.10
2022-08-23T00:12:02.550Z,0.90
2022-08-23T00:14:08.550Z,1.00
2022-08-23T00:16:10.052Z,1.33
2022-08-23T00:18:11.556Z,1.20
2022-08-23T00:20:16.702Z,0.90
2022-08-23T00:22:18.207Z,0.95
2022-08-23T00:24:22.486Z,0.93
2022-08-23T00:26:24.071Z,1.17
2022-08-23T00:28:25.618Z,1.00
2022-08-23T00:30:27.195Z,1.00
2022-08-23T00:32:32.528Z,1.00
2022-08-23T00:34:35.407Z,0.98
2022-08-23T00:36:38.202Z,1.27
2022-08-23T00:38:40.045Z,0.95
2022-08-23T00:40:48.085Z,0.93
2022-08-23T00:43:19.149Z,1.00
2022-08-23T00:45:51.328Z,1.90
2022-08-23T00:47:54.105Z,1.23
2022-08-23T00:50:19.226Z,1.00
2022-08-23T00:52:40.296Z,0.88
2022-08-23T00:54:43.076Z,1.02
2022-08-23T00:56:44.797Z,1.10
2022-08-23T00:58:47.196Z,1.60
2022-08-23T01:00:51.563Z,1.48
2022-08-23T01:02:54.459Z,1.20
2022-08-23T01:04:59.310Z,1.10
2022-08-23T01:07:21.203Z,1.20
2022-08-23T01:09:22.837Z,1.20
2022-08-23T01:11:38.777Z,0.85
2022-08-23T01:13:47.019Z,1.20
2022-08-23T01:16:04.486Z,1.10
2022-08-23T01:18:09.390Z,1.27
2022-08-23T01:20:18.329Z,0.82
2022-08-23T01:22:42.673Z,1.10
2022-08-23T01:25:05.888Z,1.00
2022-08-23T01:27:06.782Z,1.10
2022-08-23T01:29:08.390Z,0.88
2022-08-23T01:31:11.378Z,1.23
2022-08-23T01:33:13.002Z,1.15
2022-08-23T01:35:14.721Z,1.50
2022-08-23T01:37:16.270Z,1.42
2022-08-23T01:39:17.879Z,1.00
2022-08-23T01:41:19.468Z,1.05
2022-08-23T01:43:23.311Z,0.98
2022-08-23T01:45:25.047Z,1.10
2022-08-23T01:47:26.556Z,0.75
2022-08-23T01:49:28.102Z,1.15
2022-08-23T01:51:29.849Z,1.10
2022-08-23T01:53:32.009Z,1.17
2022-08-23T01:55:34.071Z,1.05
2022-08-23T01:57:35.715Z,1.20
2022-08-23T01:59:37.813Z,1.27
2022-08-23T02:01:39.797Z,1.10
2022-08-23T02:03:41.341Z,1.08
2022-08-23T02:05:43.447Z,1.20
2022-08-23T02:07:45.321Z,1.05
2022-08-23T02:09:47.012Z,1.10
2022-08-23T02:11:49.762Z,1.10
2022-08-23T02:13:53.153Z,1.23
2022-08-23T02:15:55.126Z,0.90
2022-08-23T02:17:56.634Z,1.15
2022-08-23T02:19:58.209Z,1.20
2022-08-23T02:22:00.385Z,1.00
2022-08-23T02:24:12.078Z,1.08
2022-08-23T02:26:13.769Z,1.10
2022-08-23T02:28:15.285Z,0.98
2022-08-23T02:30:16.817Z,1.00
2022-08-23T02:32:18.972Z,1.25
2022-08-23T02:34:20.579Z,1.15
2022-08-23T02:38:29.157Z,1.10
2022-08-23T02:40:30.855Z,1.23
2022-08-23T02:42:32.363Z,1.38
2022-08-23T02:44:35.566Z,1.27
2022-08-23T02:46:38.426Z,1.15
2022-08-23T02:48:39.917Z,1.23
2022-08-23T02:50:41.482Z,1.02
2022-08-23T02:52:43.013Z,1.23
2022-08-23T02:54:44.540Z,0.93
2022-08-23T02:56:46.053Z,0.90
2022-08-23T02:58:47.539Z,1.67
2022-08-23T03:00:55.764Z,0.90
2022-08-23T03:02:57.425Z,1.02
2022-08-23T03:04:59.147Z,1.05
2022-08-23T03:07:00.664Z,1.20
2022-08-23T03:09:04.732Z,1.23
2022-08-23T03:11:18.397Z,1.13
2022-08-23T03:13:20.800Z,1.17
2022-08-23T03:15:22.950Z,1.08
2022-08-23T03:17:24.628Z,1.10
2022-08-23T03:19:26.367Z,1.33
2022-08-23T03:21:28.066Z,1.33
2022-08-23T03:23:29.965Z,1.30
2022-08-23T03:25:31.466Z,1.10
2022-08-23T03:27:33.033Z,1.23
2022-08-23T03:29:45.164Z,1.27
2022-08-23T03:31:46.855Z,1.20
2022-08-23T03:33:48.489Z,0.90
2022-08-23T03:35:50.634Z,1.30
2022-08-23T03:37:55.291Z,1.40
2022-08-23T03:39:57.015Z,1.33
2022-08-23T03:41:59.903Z,1.17
2022-08-23T03:44:01.594Z,1.10
2022-08-23T03:46:03.652Z,1.33
2022-08-23T03:48:05.414Z,1.25
2022-08-23T03:50:07.446Z,0.90
2022-08-23T03:52:09.381Z,1.30
2022-08-23T03:54:11.066Z,1.25
2022-08-23T03:56:28.813Z,1.27
2022-08-23T03:58:30.298Z,1.13
2022-08-23T04:00:31.789Z,1.10
2022-08-23T04:02:33.387Z,1.40
2022-08-23T04:04:35.313Z,1.40
2022-08-23T04:06:37.137Z,1.50
2022-08-23T04:08:38.800Z,1.50
2022-08-23T04:10:41.841Z,1.50
2022-08-23T04:12:43.375Z,1.45
2022-08-23T04:14:46.006Z,1.70
2022-08-23T04:16:48.376Z,1.70
2022-08-23T04:18:49.932Z,1.60
2022-08-23T04:20:52.663Z,1.55
2022-08-23T04:22:55.703Z,1.25
2022-08-23T04:24:57.701Z,1.50
2022-08-23T04:26:59.214Z,1.35
2022-08-23T04:29:01.252Z,1.58
2022-08-23T04:31:04.756Z,1.58
2022-08-23T04:33:09.972Z,1.38
2022-08-23T04:35:12.823Z,1.30
2022-08-23T04:37:14.640Z,1.48
2022-08-23T04:39:16.716Z,1.73
2022-08-23T04:41:37.304Z,1.30
2022-08-23T04:43:39.647Z,1.23
2022-08-23T04:45:41.417Z,1.40
2022-08-23T04:47:44.764Z,1.50
2022-08-23T04:49:46.913Z,1.10
2022-08-23T04:51:51.910Z,1.33
2022-08-23T04:53:56.115Z,1.00
2022-08-23T04:55:57.606Z,1.35
2022-08-23T04:57:59.315Z,1.48
2022-08-23T05:00:01.204Z,1.10
2022-08-23T05:02:02.751Z,1.30
2022-08-23T05:04:04.991Z,1.48
2022-08-23T05:06:06.828Z,1.50
2022-08-23T05:08:08.415Z,1.45
2022-08-23T05:10:12.922Z,1.70
2022-08-23T05:12:14.674Z,1.73
2022-08-23T05:14:16.299Z,1.65
2022-08-23T05:16:17.832Z,1.33
2022-08-23T05:18:19.598Z,1.45
2022-08-23T05:20:21.181Z,1.50
2022-08-23T05:22:22.883Z,1.63
2022-08-23T05:24:24.433Z,1.50
2022-08-23T05:26:26.068Z,1.40
2022-08-23T05:28:31.431Z,1.30
2022-08-23T05:30:32.945Z,1.30
2022-08-23T05:32:34.707Z,1.58
2022-08-23T05:34:37.311Z,1.58
2022-08-23T05:36:48.900Z,1.70
2022-08-23T05:38:57.404Z,1.30
2022-08-23T05:40:59.865Z,1.10
2022-08-23T05:43:01.652Z,1.13
2022-08-23T05:45:06.244Z,1.77
2022-08-23T05:47:11.202Z,1.85
2022-08-23T05:49:13.138Z,1.40
2022-08-23T05:51:26.037Z,1.40
2022-08-23T05:53:27.603Z,1.17
2022-08-23T05:55:34.953Z,1.77
2022-08-23T05:57:38.360Z,1.35
2022-08-23T05:59:41.760Z,1.30
2022-08-23T06:01:44.070Z,1.92
2022-08-23T06:03:46.176Z,1.40
2022-08-23T06:05:47.677Z,1.10
2022-08-23T06:07:49.561Z,1.30
2022-08-23T06:09:51.103Z,1.40
2022-08-23T06:11:52.750Z,1.38
2022-08-23T06:14:00.783Z,1.77
2022-08-23T06:16:14.795Z,1.27
2022-08-23T06:18:17.006Z,1.27
2022-08-23T06:20:18.671Z,1.42
2022-08-23T06:22:20.424Z,1.45
2022-08-23T06:24:22.247Z,1.65
2022-08-23T06:26:27.003Z,1.67
2022-08-23T06:28:29.824Z,1.30
2022-08-23T06:30:31.470Z,1.48
2022-08-23T06:32:33.433Z,1.67
2022-08-23T06:34:37.075Z,1.75
2022-08-23T06:36:38.935Z,1.42
2022-08-23T06:38:46.068Z,1.30
2022-08-23T06:40:47.886Z,1.23
2022-08-23T06:42:49.369Z,1.17
2022-08-23T06:44:51.317Z,1.55
2022-08-23T06:46:53.138Z,1.30
2022-08-23T06:48:55.421Z,1.65
2022-08-23T06:50:56.900Z,1.00
2022-08-23T06:52:58.419Z,0.98
2022-08-23T06:55:00.085Z,1.20
2022-08-23T06:57:02.751Z,1.52
2022-08-23T06:59:06.327Z,1.20
2022-08-23T07:01:42.092Z,1.20
2022-08-23T07:03:38.565Z,1.05
2022-08-23T07:05:40.055Z,1.20
2022-08-23T07:07:44.111Z,1.27
2022-08-23T07:09:46.222Z,1.25
2022-08-23T07:11:47.920Z,1.17
2022-08-23T07:13:49.747Z,1.25
2022-08-23T07:15:51.377Z,1.20
2022-08-23T07:17:52.935Z,1.50
2022-08-23T07:19:54.448Z,1.13
2022-08-23T07:21:57.413Z,1.15
2022-08-23T07:23:59.146Z,1.23
2022-08-23T07:26:08.963Z,1.30
2022-08-23T07:28:12.170Z,1.23
2022-08-23T07:30:14.375Z,1.55
2022-08-23T07:32:18.776Z,1.15
2022-08-23T07:34:21.089Z,1.35
2022-08-23T07:36:24.159Z,1.42
2022-08-23T07:38:29.964Z,1.73
2022-08-23T07:40:36.789Z,1.35
2022-08-23T07:42:40.701Z,1.20
2022-08-23T07:44:42.525Z,1.20
2022-08-23T07:46:46.029Z,1.23
2022-08-23T07:48:55.246Z,1.30
2022-08-23T07:51:01.224Z,0.95
2022-08-23T07:53:03.996Z,1.02
2022-08-23T07:55:05.996Z,1.48
2022-08-23T07:57:08.372Z,1.40
2022-08-23T07:59:11.355Z,1.60
2022-08-23T08:01:22.460Z,1.00
2022-08-23T08:03:24.138Z,1.15
2022-08-23T08:05:25.711Z,1.30
2022-08-23T08:07:27.655Z,0.90
2022-08-23T08:09:32.427Z,1.58
2022-08-23T08:11:35.660Z,1.30
2022-08-23T08:13:39.361Z,1.38
2022-08-23T08:15:42.333Z,1.17
2022-08-23T08:17:46.763Z,1.20
2022-08-23T08:19:48.387Z,1.10
2022-08-23T08:21:51.270Z,1.10
2022-08-23T08:23:53.887Z,1.25
2022-08-23T08:26:05.521Z,1.13
2022-08-23T08:28:09.450Z,1.42
2022-08-23T08:30:15.113Z,1.23
2022-08-23T08:32:17.548Z,1.45
2022-08-23T08:34:20.140Z,1.20
2022-08-23T08:36:41.022Z,1.20
2022-08-23T08:38:48.171Z,1.55
2022-08-23T08:41:01.118Z,1.20
2022-08-23T08:43:28.715Z,0.98
2022-08-23T08:45:45.008Z,1.02
2022-08-23T08:48:10.159Z,1.25
2022-08-23T08:50:27.100Z,1.95
2022-08-23T08:52:32.697Z,1.50
2022-08-23T08:54:34.921Z,1.20
2022-08-23T08:56:38.928Z,1.30
2022-08-23T08:58:53.291Z,1.30
2022-08-23T09:00:55.785Z,1.38
2022-08-23T09:03:00.264Z,1.15
2022-08-23T09:05:06.931Z,1.42
2022-08-23T09:07:31.409Z,1.05
2022-08-23T09:09:40.865Z,1.02
2022-08-23T09:12:01.361Z,1.48
2022-08-23T09:14:16.594Z,1.23
2022-08-23T09:16:45.068Z,1.27
2022-08-23T09:18:46.783Z,0.90
2022-08-23T09:20:54.539Z,1.08
2022-08-23T09:23:29.409Z,0.90
2022-08-23T09:25:30.998Z,0.90
2022-08-23T09:27:33.388Z,1.50
2022-08-23T09:29:37.581Z,1.17
2022-08-23T09:31:47.452Z,1.20
2022-08-23T09:33:49.241Z,1.38
2022-08-23T09:36:13.831Z,1.00
2022-08-23T09:38:20.349Z,1.00
2022-08-23T09:40:38.860Z,1.10
2022-08-23T09:42:44.056Z,1.27
2022-08-23T09:44:45.564Z,1.40
2022-08-23T09:46:47.955Z,1.08
2022-08-23T09:48:49.643Z,1.05
2022-08-23T09:50:56.992Z,0.93
2022-08-23T09:53:04.828Z,1.00
2022-08-23T09:55:11.789Z,0.85
2022-08-23T09:57:21.843Z,1.02
2022-08-23T09:59:47.820Z,0.98
2022-08-23T10:01:51.745Z,1.20
2022-08-23T10:04:22.877Z,1.40
2022-08-23T10:06:34.050Z,0.82
2022-08-23T10:08:43.031Z,0.93
2022-08-23T10:10:50.827Z,1.33
2022-08-23T10:12:54.367Z,0.95
2022-08-23T10:14:57.473Z,1.10
2022-08-23T10:17:19.920Z,1.13
2022-08-23T10:19:34.806Z,0.90
2022-08-23T10:21:41.479Z,0.93
2022-08-23T10:24:06.123Z,1.17
2022-08-23T10:26:15.206Z,0.90
2022-08-23T10:29:04.707Z,1.02
2022-08-23T10:31:16.512Z,0.80
2022-08-23T10:33:32.843Z,0.65
2022-08-23T10:35:52.965Z,1.25
2022-08-23T10:38:06.437Z,1.00
2022-08-23T10:40:30.458Z,1.15
2022-08-23T10:42:31.917Z,0.95
2022-08-23T10:44:41.174Z,1.00
2022-08-23T10:46:57.976Z,1.00
2022-08-23T10:49:02.680Z,1.05
2022-08-23T10:51:17.867Z,1.15
2022-08-23T10:53:33.917Z,0.93
2022-08-23T10:55:54.875Z,0.90
2022-08-23T10:57:56.444Z,0.93
2022-08-23T10:59:59.233Z,1.05
2022-08-23T11:02:29.874Z,0.90
2022-08-23T11:05:02.965Z,1.00
2022-08-23T11:07:19.636Z,0.80
2022-08-23T11:09:21.080Z,0.70
2022-08-23T11:11:46.996Z,0.88
2022-08-23T11:13:53.303Z,0.73
2022-08-23T11:16:15.589Z,0.85
2022-08-23T11:18:29.026Z,0.90
2022-08-23T11:20:49.292Z,0.90
2022-08-23T11:22:56.760Z,0.70
2022-08-23T11:25:05.575Z,0.85
2022-08-23T11:27:07.608Z,0.95
2022-08-23T11:29:12.375Z,1.02
2022-08-23T11:31:29.952Z,1.00
2022-08-23T11:33:50.119Z,0.80
2022-08-23T11:36:18.652Z,0.90
2022-08-23T11:38:47.695Z,0.75
2022-08-23T11:40:52.167Z,0.60
2022-08-23T11:43:13.394Z,0.98
2022-08-23T11:45:43.617Z,1.02
2022-08-23T11:47:45.184Z,0.80
2022-08-23T11:50:06.837Z,1.27
2022-08-23T11:52:11.463Z,0.85
2022-08-23T11:54:34.654Z,0.82
2022-08-23T11:56:46.755Z,0.70
2022-08-23T11:59:08.503Z,0.75
2022-08-23T12:01:13.973Z,0.75
2022-08-23T12:03:33.843Z,0.50
2022-08-23T12:05:38.609Z,0.68
2022-08-23T12:07:54.139Z,0.75
2022-08-23T12:09:58.037Z,0.80
2022-08-23T12:12:01.134Z,0.80
2022-08-23T12:14:31.403Z,0.90
2022-08-23T12:16:36.275Z,0.73
2022-08-23T12:18:54.034Z,0.68
2022-08-23T12:20:59.065Z,0.65
2022-08-23T12:23:00.569Z,0.70
2022-08-23T12:25:06.173Z,0.63
2022-08-23T12:27:18.339Z,0.80
2022-08-23T12:29:49.080Z,0.60
2022-08-23T12:32:11.567Z,0.80
2022-08-23T12:34:25.626Z,0.70
2022-08-23T12:36:42.780Z,0.80
2022-08-23T12:38:47.237Z,0.80
2022-08-23T12:40:51.650Z,0.77
2022-08-23T12:43:22.671Z,0.50
2022-08-23T12:45:25.061Z,0.70
2022-08-23T12:47:26.764Z,0.52
2022-08-23T12:49:34.019Z,0.60
2022-08-23T12:51:48.535Z,1.07
2022-08-23T12:53:50.104Z,0.55
2022-08-23T12:55:58.879Z,0.60
2022-08-23T12:58:01.601Z,0.50
2022-08-23T13:00:17.670Z,0.65
2022-08-23T13:02:38.748Z,0.57
2022-08-23T13:04:40.818Z,0.50
2022-08-23T13:06:51.002Z,0.40
2022-08-23T13:09:21.503Z,0.60
2022-08-23T13:11:27.628Z,0.60
2022-08-23T13:13:29.471Z,0.60
2022-08-23T13:16:26.237Z,0.52
2022-08-23T13:18:28.733Z,0.82
2022-08-23T13:20:30.320Z,0.52
2022-08-23T13:22:37.586Z,0.50
2022-08-23T13:24:45.173Z,0.60
2022-08-23T13:26:48.742Z,0.70
2022-08-23T13:29:10.382Z,0.50
2022-08-23T13:31:12.288Z,0.40
2022-08-23T13:33:13.846Z,1.05
2022-08-23T13:35:28.194Z,0.70
2022-08-23T13:37:32.788Z,0.68
2022-08-23T13:39:34.507Z,0.70
2022-08-23T13:41:38.656Z,0.73
2022-08-23T13:43:52.920Z,0.60
2022-08-23T13:46:00.824Z,0.55
2022-08-23T13:48:15.691Z,0.47
2022-08-23T13:50:23.752Z,0.70
2022-08-23T13:54:47.194Z,0.70
2022-08-23T13:57:02.856Z,0.57
2022-08-23T13:59:50.366Z,0.55
2022-08-23T14:03:54.177Z,0.50
2022-08-23T14:05:55.964Z,0.60
2022-08-23T14:07:57.567Z,0.60
2022-08-23T14:09:59.940Z,0.57
2022-08-23T14:12:05.538Z,0.63
2022-08-23T14:14:12.559Z,0.60
2022-08-23T14:16:40.430Z,0.80
2022-08-23T14:21:04.582Z,1.08
2022-08-23T14:23:12.511Z,0.60
2022-08-23T14:25:14.949Z,0.63
2022-08-23T14:27:16.506Z,0.50
2022-08-23T14:29:18.423Z,0.68
2022-08-23T14:31:24.009Z,0.60
2022-08-23T14:33:25.519Z,0.95
2022-08-23T14:35:27.367Z,0.80
2022-08-23T14:39:50.893Z,0.82
2022-08-23T14:42:01.430Z,0.77
2022-08-23T14:44:03.606Z,0.80
2022-08-23T14:46:05.378Z,1.02
2022-08-23T14:48:06.962Z,1.15
2022-08-23T14:50:11.216Z,0.50
2022-08-23T14:52:14.502Z,0.77
2022-08-23T14:54:23.273Z,0.70
2022-08-23T14:56:24.864Z,0.55
2022-08-23T14:58:26.420Z,0.70
2022-08-23T15:00:28.144Z,0.60
2022-08-23T15:02:29.946Z,0.70
2022-08-23T15:04:34.401Z,0.80
2022-08-23T15:06:36.840Z,0.80
2022-08-23T15:08:39.486Z,0.50
2022-08-23T15:13:20.377Z,0.50
2022-08-23T15:15:23.886Z,0.65
2022-08-23T15:17:31.305Z,0.50
2022-08-23T15:19:33.338Z,0.60
2022-08-23T15:21:34.882Z,0.80
2022-08-23T15:23:36.367Z,0.73
2022-08-23T15:25:41.513Z,0.65
2022-08-23T15:27:45.044Z,0.60
2022-08-23T15:29:46.595Z,0.50
2022-08-23T15:31:48.124Z,0.65
2022-08-23T15:33:51.421Z,0.80
2022-08-23T15:35:53.361Z,0.93
2022-08-23T15:37:56.416Z,0.60
2022-08-23T15:39:58.079Z,0.50
2022-08-23T15:41:59.606Z,0.80
2022-08-23T15:44:01.695Z,0.80
2022-08-23T15:46:07.138Z,0.70
2022-08-23T15:48:24.261Z,0.70
2022-08-23T15:50:29.319Z,0.80
2022-08-23T15:52:30.816Z,0.70
2022-08-23T15:54:32.310Z,0.65
2022-08-23T15:56:42.010Z,0.63
2022-08-23T15:58:43.689Z,0.75
2022-08-23T16:00:45.782Z,0.90
2022-08-23T16:03:17.177Z,0.50
2022-08-23T16:05:10.428Z,0.60
2022-08-23T16:07:14.966Z,0.82
2022-08-23T16:09:21.844Z,0.70
2022-08-23T16:11:24.162Z,0.70
2022-08-23T16:13:26.762Z,0.60
2022-08-23T16:15:28.280Z,0.60
2022-08-23T16:17:29.962Z,0.70
2022-08-23T16:19:31.629Z,0.70
2022-08-23T16:21:34.898Z,0.55
2022-08-23T16:23:39.737Z,0.47
2022-08-23T16:25:42.202Z,0.80
2022-08-23T16:27:43.803Z,0.60
2022-08-23T16:29:45.565Z,0.77
2022-08-23T16:31:47.894Z,0.70
2022-08-23T16:33:49.467Z,0.60
2022-08-23T16:35:51.044Z,0.63
2022-08-23T16:37:54.479Z,0.68
2022-08-23T16:39:56.034Z,0.77
2022-08-23T16:41:57.714Z,0.68
2022-08-23T16:43:59.252Z,0.80
2022-08-23T16:46:00.924Z,0.90
2022-08-23T16:48:02.670Z,0.55
2022-08-23T16:50:06.171Z,1.15
2022-08-23T16:52:07.740Z,0.90
2022-08-23T16:54:09.745Z,0.98
2022-08-23T16:56:11.438Z,0.82
2022-08-23T16:58:13.005Z,0.65
2022-08-23T17:00:15.618Z,0.55
2022-08-23T17:02:30.004Z,0.68
2022-08-23T17:04:33.204Z,0.60
2022-08-23T17:06:34.715Z,0.77
2022-08-23T17:08:36.837Z,0.90
2022-08-23T17:10:38.658Z,0.90
2022-08-23T17:12:46.873Z,0.65
2022-08-23T17:14:50.769Z,0.80
2022-08-23T17:16:52.442Z,0.70
2022-08-23T17:18:57.032Z,1.35
2022-08-23T17:20:58.568Z,0.57
2022-08-23T17:23:00.137Z,0.60
2022-08-23T17:25:01.973Z,0.63
2022-08-23T17:27:04.091Z,1.08
2022-08-23T17:29:05.762Z,1.20
2022-08-23T17:31:07.261Z,0.73
2022-08-23T17:33:09.171Z,0.60
2022-08-23T17:35:14.900Z,0.82
2022-08-23T17:37:20.715Z,0.70
2022-08-23T17:39:27.396Z,0.60
2022-08-23T17:41:28.981Z,0.50
2022-08-23T17:43:35.067Z,1.10
2022-08-23T17:45:44.818Z,0.95
2022-08-23T17:47:47.097Z,0.80
2022-08-23T17:49:49.449Z,0.80
2022-08-23T17:51:50.995Z,0.80
2022-08-23T17:53:53.020Z,0.50
2022-08-23T17:55:54.513Z,0.77
2022-08-23T17:58:02.152Z,0.90
2022-08-23T18:00:07.451Z,0.70
2022-08-23T18:02:09.215Z,0.70
2022-08-23T18:04:14.041Z,0.75
2022-08-23T18:06:17.510Z,0.63
2022-08-23T18:08:19.435Z,0.70
2022-08-23T18:10:21.468Z,0.80
2022-08-23T18:12:23.186Z,0.70
2022-08-23T18:14:24.930Z,0.50
2022-08-23T18:16:34.486Z,0.70
2022-08-23T18:18:37.843Z,0.60
2022-08-23T18:20:39.349Z,0.60
2022-08-23T18:22:40.935Z,0.65
2022-08-23T18:24:42.488Z,0.55
2022-08-23T18:27:03.159Z,0.73
2022-08-23T18:29:06.591Z,0.65
2022-08-23T18:31:08.132Z,1.05
2022-08-23T18:33:12.567Z,1.00
2022-08-23T18:35:14.505Z,0.80
2022-08-23T18:37:21.601Z,1.00
2022-08-23T18:39:31.355Z,0.65
2022-08-23T18:41:34.117Z,0.70
2022-08-23T18:43:37.537Z,0.68
2022-08-23T18:45:39.547Z,0.50
2022-08-23T18:47:41.315Z,0.50
2022-08-23T18:49:43.292Z,0.57
2022-08-23T18:51:44.777Z,0.50
2022-08-23T18:53:46.851Z,0.70
2022-08-23T18:55:50.047Z,1.05
2022-08-23T18:57:51.526Z,0.60
2022-08-23T18:59:53.096Z,0.45
2022-08-23T19:01:55.182Z,0.70
2022-08-23T19:03:59.395Z,0.70
2022-08-23T19:06:00.898Z,0.70
2022-08-23T19:08:03.498Z,0.63
2022-08-23T19:10:05.932Z,0.70
2022-08-23T19:12:08.486Z,0.70
2022-08-23T19:14:12.501Z,0.93
2022-08-23T19:16:15.628Z,0.60
2022-08-23T19:18:17.203Z,0.65
2022-08-23T19:20:19.898Z,0.90
2022-08-23T19:22:21.487Z,1.05
2022-08-23T19:24:24.063Z,0.85
2022-08-23T19:26:31.849Z,0.63
2022-08-23T19:28:36.389Z,0.45
2022-08-23T19:30:42.185Z,0.73
2022-08-23T19:32:45.082Z,0.50
2022-08-23T19:34:46.634Z,0.60
2022-08-23T19:37:00.289Z,0.55
2022-08-23T19:39:05.855Z,0.50
2022-08-23T19:41:07.495Z,0.68
2022-08-23T19:43:10.138Z,0.50
2022-08-23T19:45:12.455Z,0.65
2022-08-23T19:47:20.388Z,0.55
2022-08-23T19:49:25.924Z,0.60
2022-08-23T19:51:28.293Z,0.63
2022-08-23T19:53:35.515Z,0.70
2022-08-23T19:55:42.586Z,0.68
2022-08-23T19:57:49.434Z,0.70
2022-08-23T19:59:56.749Z,1.05
2022-08-23T20:02:02.052Z,0.60
2022-08-23T20:04:05.029Z,0.50
2022-08-23T20:06:09.601Z,0.60
2022-08-23T20:08:12.883Z,0.60
2022-08-23T20:10:14.893Z,0.82
2022-08-23T20:12:20.161Z,0.70
2022-08-23T20:14:24.198Z,0.90
2022-08-23T20:16:43.871Z,0.63
2022-08-23T20:18:53.754Z,0.57
2022-08-23T20:20:55.481Z,0.95
2022-08-23T20:23:15.686Z,2.53
2022-08-23T20:25:20.655Z,1.10
2022-08-23T20:27:28.385Z,1.00
2022-08-23T20:29:38.319Z,0.52
2022-08-23T20:31:58.012Z,0.90
2022-08-23T20:34:04.731Z,0.70
2022-08-23T20:36:08.010Z,0.70
2022-08-23T20:38:09.897Z,0.73
2022-08-23T20:40:31.683Z,0.73
2022-08-23T20:42:33.641Z,0.65
2022-08-23T20:44:38.801Z,0.77
2022-08-23T20:46:40.623Z,0.70
2022-08-23T20:48:47.696Z,0.80
2022-08-23T20:50:54.868Z,0.63
2022-08-23T20:52:58.293Z,0.55
2022-08-23T20:54:59.920Z,0.77
2022-08-23T20:57:07.507Z,0.73
2022-08-23T20:59:14.650Z,0.73
2022-08-23T21:01:16.561Z,0.50
2022-08-23T21:03:18.490Z,0.68
2022-08-23T21:05:21.885Z,0.45
2022-08-23T21:07:29.286Z,0.68
2022-08-23T21:09:31.102Z,0.43
2022-08-23T21:11:32.711Z,0.63
2022-08-23T21:13:36.242Z,0.88
2022-08-23T21:15:40.612Z,0.65
2022-08-23T21:17:42.329Z,0.60
2022-08-23T21:19:44.301Z,0.93
2022-08-23T21:21:47.181Z,0.90
2022-08-23T21:23:48.827Z,0.77
2022-08-23T21:25:57.960Z,0.60
2022-08-23T21:28:11.210Z,0.93
2022-08-23T21:30:15.406Z,0.70
2022-08-23T21:32:21.489Z,0.65
2022-08-23T21:34:23.266Z,0.70
2022-08-23T21:36:24.828Z,0.90
2022-08-23T21:38:30.465Z,0.80
2022-08-23T21:40:34.323Z,0.85
2022-08-23T21:42:38.646Z,0.80
2022-08-23T21:44:41.001Z,0.50
2022-08-23T21:46:48.167Z,0.65
2022-08-23T21:48:49.797Z,1.02
2022-08-23T21:50:59.399Z,0.75
2022-08-23T21:53:26.054Z,0.85
2022-08-23T21:55:37.099Z,0.95
2022-08-23T21:57:39.079Z,0.60
2022-08-23T21:59:41.408Z,0.95
2022-08-23T22:01:43.524Z,0.60
2022-08-23T22:03:45.107Z,0.60
2022-08-23T22:05:47.087Z,0.45
2022-08-23T22:07:51.906Z,0.60
2022-08-23T22:09:55.961Z,0.60
2022-08-23T22:12:00.088Z,0.60
2022-08-23T22:14:04.423Z,0.60
2022-08-23T22:16:11.511Z,0.60
2022-08-23T22:18:21.671Z,1.00
2022-08-23T22:20:30.248Z,0.68
2022-08-23T22:22:34.816Z,0.70
2022-08-23T22:24:38.731Z,0.80
2022-08-23T22:26:42.043Z,0.70
2022-08-23T22:28:44.960Z,0.70
2022-08-23T22:30:46.755Z,0.68
2022-08-23T22:32:49.491Z,0.68
2022-08-23T22:34:51.034Z,0.70
2022-08-23T22:36:52.828Z,0.70
2022-08-23T22:38:54.764Z,0.70
2022-08-23T22:40:56.365Z,0.80
2022-08-23T22:42:57.940Z,0.90
2022-08-23T22:45:00.497Z,0.68
2022-08-23T22:47:02.006Z,0.70
2022-08-23T22:49:06.536Z,0.75
2022-08-23T22:51:14.980Z,0.68
2022-08-23T22:55:18.563Z,0.50
2022-08-23T22:57:20.049Z,0.50
2022-08-23T22:59:27.709Z,0.88
2022-08-23T23:01:38.248Z,0.60
2022-08-23T23:03:40.478Z,0.68
2022-08-23T23:05:43.140Z,0.80
2022-08-23T23:08:03.453Z,0.70
2022-08-23T23:10:05.947Z,0.70
2022-08-23T23:12:07.716Z,0.80
2022-08-23T23:14:11.259Z,0.45
2022-08-23T23:16:17.414Z,1.00
2022-08-23T23:18:19.577Z,0.70
2022-08-23T23:20:40.354Z,0.60
2022-08-23T23:22:44.186Z,0.60
2022-08-23T23:24:45.767Z,1.10
2022-08-23T23:26:48.330Z,0.73
2022-08-23T23:28:49.816Z,0.65
2022-08-23T23:30:54.222Z,0.63
2022-08-23T23:32:56.208Z,0.63
2022-08-23T23:34:57.791Z,0.90
2022-08-23T23:37:02.573Z,0.80
2022-08-23T23:39:07.118Z,0.90
2022-08-23T23:41:09.746Z,0.68
2022-08-23T23:43:13.115Z,0.93
2022-08-23T23:45:16.051Z,0.75
2022-08-23T23:47:17.842Z,0.63
2022-08-23T23:49:23.521Z,0.65
2022-08-23T23:51:34.032Z,0.68
2022-08-23T23:53:37.240Z,0.60
2022-08-23T23:55:38.858Z,0.73
2022-08-23T23:57:40.544Z,0.77
2022-08-23T23:59:42.106Z,0.80
